Time;durP1;ratioP1;P1;durP2;ratioP2;P2;SDS_P1;SDS_P2;PMS_P1;PMS_P2;Temp;Humidity;BMP_temperature;BMP_pressure;BME280_temperature;BME280_humidity;BME280_pressure;Samples;Min_cycle;Max_cycle;Signal;HPM_P1;HPM_P2
2022/12/25 00:01:51;;;;;;;;;;;;;;;12.35;nan;101648.03;5013059;28;19922;-34
2022/12/25 00:04:17;;;;;;;;;;;;;;;12.33;nan;101652.81;5014787;28;19988;-34
2022/12/25 00:06:42;;;;;;;;;;;;;;;12.33;nan;101657.38;5014627;28;20453;-34
2022/12/25 00:09:07;;;;;;;;;;;;;;;12.35;nan;101653.41;5017923;28;19932;-34
2022/12/25 00:11:33;;;;;;;;;;;;;;;12.33;nan;101657.38;5015953;28;19917;-34
2022/12/25 00:13:58;;;;;;;;;;;;;;;12.34;nan;101651.78;5018233;28;19918;-34
2022/12/25 00:16:25;;;;;;;;;;;;;;;12.36;nan;101660.41;5014599;28;19918;-36
2022/12/25 00:18:50;;;;;;;;;;;;;;;12.36;nan;101657.72;5011412;28;20481;-36
2022/12/25 00:21:16;;;;;;;;;;;;;;;12.37;nan;101653.97;5021107;28;19932;-34
2022/12/25 00:23:42;;;;;;;;;;;;;;;12.40;nan;101653.53;5018274;28;19933;-35
2022/12/25 00:26:09;;;;;;;;;;;;;;;12.44;nan;101666.47;5018293;28;19931;-35
2022/12/25 00:28:35;;;;;;;;;;;;;;;12.46;nan;101664.38;5012742;28;19932;-35
2022/12/25 00:31:07;;;;;;;;;;;;;;;12.49;nan;101662.00;5016203;28;20264;-35
2022/12/25 00:33:36;;;;;;;;;;;;;;;12.50;nan;101657.47;5014865;28;19917;-34
2022/12/25 00:36:01;;;;;;;;;;;;;;;12.53;nan;101665.03;5011425;28;20361;-35
2022/12/25 00:38:27;;;;;;;;;;;;;;;12.55;nan;101661.06;5013469;28;19961;-35
2022/12/25 00:40:53;;;;;;;;;;;;;;;12.56;nan;101673.44;5017417;28;20040;-35
2022/12/25 00:43:18;;;;;;;;;;;;;;;12.57;nan;101682.34;5013913;28;19921;-35
2022/12/25 00:45:43;;;;;;;;;;;;;;;12.59;nan;101677.53;5013017;28;19963;-36
2022/12/25 00:48:09;;;;;;;;;;;;;;;12.55;nan;101677.19;5014571;28;19921;-35
2022/12/25 00:50:36;;;;;;;;;;;;;;;12.55;nan;101679.88;5020418;28;20667;-35
2022/12/25 00:53:02;;;;;;;;;;;;;;;12.58;nan;101678.59;5019016;28;19968;-34
2022/12/25 00:55:29;;;;;;;;;;;;;;;12.57;nan;101688.53;5010362;28;19921;-35
2022/12/25 00:57:54;;;;;;;;;;;;;;;12.60;nan;101687.25;5031648;28;19917;-35
2022/12/25 01:00:20;;;;;;;;;;;;;;;12.62;nan;101691.31;5015226;28;19917;-35
2022/12/25 01:02:45;;;;;;;;;;;;;;;12.63;nan;101686.75;5010833;28;19929;-34
2022/12/25 01:05:10;;;;;;;;;;;;;;;12.65;nan;101690.03;5016510;28;19947;-35
2022/12/25 01:07:35;;;;;;;;;;;;;;;12.60;nan;101690.75;5015850;28;19925;-35
2022/12/25 01:12:45;;;;;;;;;;;;;;;12.55;nan;101706.75;5019423;28;19928;-35
2022/12/25 01:15:11;;;;;;;;;;;;;;;12.57;nan;101714.59;5016974;28;19917;-35
2022/12/25 01:17:36;;;;;;;;;;;;;;;12.57;nan;101720.81;5019170;28;20012;-35
2022/12/25 01:20:02;;;;;;;;;;;;;;;12.61;nan;101715.75;5016153;28;20016;-35
2022/12/25 01:22:28;;;;;;;;;;;;;;;12.60;nan;101724.88;5018009;28;19925;-35
2022/12/25 01:24:53;;;;;;;;;;;;;;;12.60;nan;101732.94;5019513;28;19971;-34
2022/12/25 01:27:18;;;;;;;;;;;;;;;12.62;nan;101728.97;5017957;28;20331;-35
2022/12/25 01:29:44;;;;;;;;;;;;;;;12.64;nan;101729.53;5015705;28;19921;-35
2022/12/25 01:32:10;;;;;;;;;;;;;;;12.65;nan;101727.66;5018903;28;19921;-35
2022/12/25 01:34:35;;;;;;;;;;;;;;;12.66;nan;101735.50;5016168;28;20395;-34
2022/12/25 01:37:00;;;;;;;;;;;;;;;12.67;nan;101741.69;5017175;28;19967;-34
2022/12/25 01:39:26;;;;;;;;;;;;;;;12.65;nan;101739.22;5015604;28;20016;-34
2022/12/25 01:41:51;;;;;;;;;;;;;;;12.58;nan;101735.06;5016982;28;19991;-34
2022/12/25 01:44:17;;;;;;;;;;;;;;;12.51;nan;101745.09;5017892;28;19928;-36
2022/12/25 01:46:42;;;;;;;;;;;;;;;12.46;nan;101753.88;5013434;28;19950;-35
2022/12/25 01:49:14;;;;;;;;;;;;;;;12.45;nan;101757.63;5015108;28;19931;-36
2022/12/25 01:51:42;;;;;;;;;;;;;;;12.43;nan;101759.72;5014694;28;19927;-35
2022/12/25 01:54:13;;;;;;;;;;;;;;;12.40;nan;101758.34;5018464;28;20023;-35
2022/12/25 01:56:39;;;;;;;;;;;;;;;12.39;nan;101753.19;5018451;28;19921;-35
2022/12/25 01:59:07;;;;;;;;;;;;;;;12.36;nan;101775.97;5015489;28;19925;-35
2022/12/25 02:01:32;;;;;;;;;;;;;;;12.33;nan;101771.06;5016259;28;19924;-35
2022/12/25 02:04:05;;;;;;;;;;;;;;;12.32;nan;101777.50;5015320;28;19921;-34
2022/12/25 02:06:33;;;;;;;;;;;;;;;12.30;nan;101768.84;5015975;28;19921;-35
2022/12/25 02:08:58;;;;;;;;;;;;;;;12.31;nan;101773.16;5014958;28;20000;-34
2022/12/25 02:14:08;;;;;;;;;;;;;;;12.30;nan;101771.53;5016985;28;20165;-35
2022/12/25 02:16:34;;;;;;;;;;;;;;;12.29;nan;101777.97;5037210;22;19981;-32
2022/12/25 02:19:04;;;;;;;;;;;;;;;12.26;nan;101778.44;5027285;28;20639;-32
2022/12/25 02:21:50;;;;;;;;;;;;;;;12.22;nan;101774.59;5022714;28;20462;-32
2022/12/25 02:24:16;;;;;;;;;;;;;;;12.17;nan;101774.44;5025142;28;19975;-32
2022/12/25 02:26:50;;;;;;;;;;;;;;;12.14;nan;101774.94;5022001;28;19921;-32
2022/12/25 02:29:26;;;;;;;;;;;;;;;12.13;nan;101773.28;5015186;28;19925;-32
2022/12/25 02:31:58;;;;;;;;;;;;;;;12.15;nan;101773.06;5009853;28;19928;-32
2022/12/25 02:34:29;;;;;;;;;;;;;;;12.13;nan;101770.59;5000144;28;19925;-32
2022/12/25 02:37:00;;;;;;;;;;;;;;;12.09;nan;101775.63;5020420;28;20235;-32
2022/12/25 02:42:17;;;;;;;;;;;;;;;12.05;nan;101781.72;5009650;28;20166;-32
2022/12/25 03:07:01;;;;;;;;;;;;;;;11.75;nan;101777.19;5002987;28;19971;-32
2022/12/25 03:12:30;;;;;;;;;;;;;;;11.65;nan;101789.53;5010903;28;19964;-32
2022/12/25 03:17:39;;;;;;;;;;;;;;;11.60;nan;101790.22;5004053;28;19964;-32
2022/12/25 03:28:17;;;;;;;;;;;;;;;11.64;nan;101802.13;5003181;28;20005;-32
2022/12/25 03:37:11;;;;;;;;;;;;;;;11.83;nan;101807.47;5013642;28;20294;-32
2022/12/25 04:37:25;;;;;;;;;;;;;;;12.34;nan;101858.69;5014721;28;19928;-32
2022/12/25 04:39:50;;;;;;;;;;;;;;;12.34;nan;101866.75;5016282;28;19917;-32
2022/12/25 04:42:16;;;;;;;;;;;;;;;12.37;nan;101868.97;5007305;28;19917;-32
2022/12/25 04:44:41;;;;;;;;;;;;;;;12.40;nan;101862.34;5006562;28;19971;-32
2022/12/25 04:47:07;;;;;;;;;;;;;;;12.43;nan;101866.44;5015719;28;19961;-32
2022/12/25 04:49:32;;;;;;;;;;;;;;;12.46;nan;101877.53;5016495;28;20020;-32
2022/12/25 04:51:57;;;;;;;;;;;;;;;12.51;nan;101884.88;5006988;28;19921;-32
2022/12/25 04:54:23;;;;;;;;;;;;;;;12.53;nan;101888.97;5005823;28;19925;-32
2022/12/25 04:56:48;;;;;;;;;;;;;;;12.52;nan;101886.53;5015066;28;20046;-32
2022/12/25 04:59:13;;;;;;;;;;;;;;;12.51;nan;101890.25;5012704;28;19918;-32
2022/12/25 05:01:39;;;;;;;;;;;;;;;12.51;nan;101892.94;5016866;28;19955;-32
2022/12/25 05:04:04;;;;;;;;;;;;;;;12.51;nan;101893.78;5008102;28;19968;-32
2022/12/25 05:06:29;;;;;;;;;;;;;;;12.50;nan;101896.69;5009829;28;19921;-32
2022/12/25 05:08:55;;;;;;;;;;;;;;;12.51;nan;101909.06;5012047;28;19971;-32
2022/12/25 05:11:20;;;;;;;;;;;;;;;12.54;nan;101903.22;5011368;28;19984;-32
2022/12/25 05:13:46;;;;;;;;;;;;;;;12.54;nan;101904.06;5013882;28;19918;-32
2022/12/25 05:16:12;;;;;;;;;;;;;;;12.53;nan;101915.03;5006987;28;19961;-32
2022/12/25 05:18:37;;;;;;;;;;;;;;;12.53;nan;101921.22;5011009;28;20012;-32
2022/12/25 05:21:03;;;;;;;;;;;;;;;12.51;nan;101922.53;5014209;28;20000;-32
2022/12/25 05:23:29;;;;;;;;;;;;;;;12.51;nan;101917.16;5008643;28;19921;-32
2022/12/25 05:25:54;;;;;;;;;;;;;;;12.54;nan;101922.06;5007872;28;20401;-32
2022/12/25 05:28:19;;;;;;;;;;;;;;;12.51;nan;101922.53;5007519;28;19921;-32
2022/12/25 05:30:45;;;;;;;;;;;;;;;12.46;nan;101911.66;5017095;28;19925;-32
2022/12/25 05:33:10;;;;;;;;;;;;;;;12.46;nan;101917.84;5012947;28;20513;-32
2022/12/25 05:35:36;;;;;;;;;;;;;;;12.46;nan;101917.03;5012731;28;20317;-32
2022/12/25 05:38:02;;;;;;;;;;;;;;;12.46;nan;101917.03;5004888;28;19917;-32
2022/12/25 05:40:28;;;;;;;;;;;;;;;12.51;nan;101914.47;5010464;28;19943;-32
2022/12/25 05:42:53;;;;;;;;;;;;;;;12.52;nan;101910.72;5011639;28;19953;-32
2022/12/25 05:45:18;;;;;;;;;;;;;;;12.55;nan;101904.88;5006337;28;20388;-32
2022/12/25 05:47:44;;;;;;;;;;;;;;;12.56;nan;101895.75;5005747;28;19917;-32
2022/12/25 05:50:09;;;;;;;;;;;;;;;12.60;nan;101896.94;5002397;28;19972;-32
2022/12/25 05:52:34;;;;;;;;;;;;;;;12.61;nan;101890.50;5009475;28;19925;-32
2022/12/25 05:55:00;;;;;;;;;;;;;;;12.63;nan;101877.66;5009172;28;19931;-32
2022/12/25 05:57:29;;;;;;;;;;;;;;;12.66;nan;101877.19;5012360;28;20367;-32
2022/12/25 05:59:54;;;;;;;;;;;;;;;12.65;nan;101878.22;5008324;28;19917;-32
2022/12/25 06:02:20;;;;;;;;;;;;;;;12.66;nan;101871.81;5007711;28;19926;-32
2022/12/25 06:04:45;;;;;;;;;;;;;;;12.67;nan;101870.75;5011331;28;19921;-32
2022/12/25 06:07:11;;;;;;;;;;;;;;;12.69;nan;101874.00;5012079;28;19918;-32
2022/12/25 06:09:36;;;;;;;;;;;;;;;12.72;nan;101868.16;5006520;28;19921;-32
2022/12/25 06:12:01;;;;;;;;;;;;;;;12.73;nan;101867.09;5002919;28;20370;-32
2022/12/25 06:14:27;;;;;;;;;;;;;;;12.73;nan;101868.97;5012724;28;19921;-32
2022/12/25 06:16:52;;;;;;;;;;;;;;;12.71;nan;101875.41;5007518;28;20953;-32
2022/12/25 06:19:18;;;;;;;;;;;;;;;12.73;nan;101872.50;5008369;28;19921;-32
2022/12/25 06:21:43;;;;;;;;;;;;;;;12.72;nan;101870.84;5003679;28;19925;-32
2022/12/25 06:24:08;;;;;;;;;;;;;;;12.74;nan;101870.63;5006066;28;19936;-32
2022/12/25 06:26:34;;;;;;;;;;;;;;;12.75;nan;101872.25;5017582;28;19917;-32
2022/12/25 06:28:59;;;;;;;;;;;;;;;12.76;nan;101873.91;5008767;28;19927;-32
2022/12/25 06:31:25;;;;;;;;;;;;;;;12.77;nan;101873.69;5014048;28;19964;-32
2022/12/25 06:33:50;;;;;;;;;;;;;;;12.75;nan;101878.47;5005495;28;19956;-32
2022/12/25 06:36:17;;;;;;;;;;;;;;;12.73;nan;101877.03;5005747;28;19964;-32
2022/12/25 06:38:43;;;;;;;;;;;;;;;12.69;nan;101879.41;5011788;28;19924;-32
2022/12/25 06:41:10;;;;;;;;;;;;;;;12.63;nan;101877.66;5009410;28;19918;-32
2022/12/25 06:43:36;;;;;;;;;;;;;;;12.61;nan;101877.06;5007492;28;19928;-32
2022/12/25 06:46:11;;;;;;;;;;;;;;;12.59;nan;101888.06;5004115;28;19918;-32
2022/12/25 06:48:37;;;;;;;;;;;;;;;12.62;nan;101889.47;5012237;28;19921;-32
2022/12/25 06:51:03;;;;;;;;;;;;;;;12.68;nan;101891.19;5007291;28;19927;-32
2022/12/25 06:53:29;;;;;;;;;;;;;;;12.64;nan;101888.16;5015323;28;19921;-32
2022/12/25 06:56:01;;;;;;;;;;;;;;;12.65;nan;101889.00;5003014;28;20031;-32
2022/12/25 06:58:27;;;;;;;;;;;;;;;12.64;nan;101892.72;5005758;28;19917;-32
2022/12/25 07:00:52;;;;;;;;;;;;;;;12.60;nan;101891.56;5006810;28;19960;-32
2022/12/25 07:03:19;;;;;;;;;;;;;;;12.51;nan;101891.09;4990657;28;20027;-32
2022/12/25 07:05:46;;;;;;;;;;;;;;;12.48;nan;101898.78;4983970;28;19929;-32
2022/12/25 07:08:11;;;;;;;;;;;;;;;12.44;nan;101903.00;4983930;28;19933;-32
2022/12/25 07:10:37;;;;;;;;;;;;;;;12.39;nan;101901.03;4985146;28;20382;-32
2022/12/25 07:13:02;;;;;;;;;;;;;;;12.34;nan;101907.06;4986698;28;19921;-32
2022/12/25 07:15:27;;;;;;;;;;;;;;;12.30;nan;101907.78;4985560;28;21337;-32
2022/12/25 07:17:52;;;;;;;;;;;;;;;12.21;nan;101901.94;4982780;28;19931;-32
2022/12/25 07:20:18;;;;;;;;;;;;;;;12.15;nan;101910.88;4987656;28;19932;-32
2022/12/25 07:22:43;;;;;;;;;;;;;;;12.05;nan;101919.53;4990068;28;19922;-32
2022/12/25 07:25:09;;;;;;;;;;;;;;;12.06;nan;101920.34;4988678;28;19925;-32
2022/12/25 07:27:34;;;;;;;;;;;;;;;12.10;nan;101913.44;4987389;28;19925;-32
2022/12/25 07:29:59;;;;;;;;;;;;;;;12.11;nan;101917.78;4989274;28;20867;-32
2022/12/25 07:32:24;;;;;;;;;;;;;;;12.12;nan;101927.47;4989904;28;19929;-32
2022/12/25 07:34:50;;;;;;;;;;;;;;;12.08;nan;101913.69;4986902;28;19925;-32
2022/12/25 07:37:15;;;;;;;;;;;;;;;12.09;nan;101909.13;4989461;28;19991;-32
2022/12/25 07:39:41;;;;;;;;;;;;;;;12.04;nan;101914.38;4986917;28;19995;-32
2022/12/25 07:42:06;;;;;;;;;;;;;;;12.03;nan;101910.06;4987309;28;19925;-32
2022/12/25 07:44:31;;;;;;;;;;;;;;;12.04;nan;101919.75;4989453;28;19929;-32
2022/12/25 07:46:57;;;;;;;;;;;;;;;12.05;nan;101919.53;4988555;28;19925;-32
2022/12/25 07:49:22;;;;;;;;;;;;;;;12.03;nan;101934.22;4990588;28;19932;-32
2022/12/25 07:51:47;;;;;;;;;;;;;;;12.02;nan;101929.88;4992728;28;20013;-32
2022/12/25 07:54:13;;;;;;;;;;;;;;;11.99;nan;101935.72;4990071;28;20044;-32
2022/12/25 07:56:38;;;;;;;;;;;;;;;11.99;nan;101941.91;4991271;28;20048;-32
2022/12/25 07:59:03;;;;;;;;;;;;;;;11.96;nan;101934.31;4989740;28;19921;-32
2022/12/25 08:01:29;;;;;;;;;;;;;;;11.94;nan;101943.66;4992305;28;19952;-32
2022/12/25 08:03:55;;;;;;;;;;;;;;;11.95;nan;101945.28;4989152;28;19967;-32
2022/12/25 08:06:22;;;;;;;;;;;;;;;11.96;nan;101952.28;4986388;28;19933;-32
2022/12/25 08:08:47;;;;;;;;;;;;;;;11.99;nan;101943.78;4991394;28;20345;-32
2022/12/25 08:11:13;;;;;;;;;;;;;;;11.98;nan;101947.50;4993504;28;19925;-32
2022/12/25 08:13:38;;;;;;;;;;;;;;;11.97;nan;101956.63;4988773;28;20054;-32
2022/12/25 08:18:37;;;;;;;;;;;;;;;11.92;nan;101951.13;5052792;28;19931;-33
2022/12/25 08:21:04;;;;;;;;;;;;;;;11.88;nan;101948.06;5064375;28;19935;-34
2022/12/25 08:23:29;;;;;;;;;;;;;;;11.86;nan;101949.34;5062624;28;20369;-34
2022/12/25 08:25:59;;;;;;;;;;;;;;;11.84;nan;101946.88;5060996;28;19916;-34
2022/12/25 08:28:24;;;;;;;;;;;;;;;11.83;nan;101944.41;5041640;28;20320;-34
2022/12/25 08:30:50;;;;;;;;;;;;;;;11.82;nan;101950.81;5027354;28;19925;-33
2022/12/25 08:33:15;;;;;;;;;;;;;;;11.83;nan;101961.34;5037678;28;20020;-33
2022/12/25 08:35:40;;;;;;;;;;;;;;;11.87;nan;101967.09;5032355;28;19931;-34
2022/12/25 08:38:06;;;;;;;;;;;;;;;11.92;nan;101959.16;5042872;28;19935;-33
2022/12/25 08:40:31;;;;;;;;;;;;;;;11.93;nan;101956.25;5046595;28;20352;-33
2022/12/25 08:42:56;;;;;;;;;;;;;;;11.91;nan;101962.91;5043597;28;20305;-34
2022/12/25 08:45:22;;;;;;;;;;;;;;;11.89;nan;101955.06;5044489;28;20422;-34
2022/12/25 08:47:47;;;;;;;;;;;;;;;11.86;nan;101962.78;5041812;28;19927;-34
2022/12/25 08:50:12;;;;;;;;;;;;;;;11.85;nan;101964.66;5042595;28;20063;-33
2022/12/25 08:52:38;;;;;;;;;;;;;;;11.87;nan;101969.78;5042261;28;19921;-33
2022/12/25 08:55:03;;;;;;;;;;;;;;;11.90;nan;101980.06;5047208;28;19920;-35
2022/12/25 08:57:29;;;;;;;;;;;;;;;11.93;nan;101984.97;5039296;28;19917;-33
2022/12/25 08:59:54;;;;;;;;;;;;;;;11.90;nan;101986.25;5041759;28;19921;-34
2022/12/25 09:02:19;;;;;;;;;;;;;;;11.89;nan;101990.00;5038502;28;20473;-33
2022/12/25 09:04:45;;;;;;;;;;;;;;;11.86;nan;101993.13;5041515;28;19931;-34
2022/12/25 09:07:10;;;;;;;;;;;;;;;11.80;nan;101994.84;5043429;28;20504;-33
2022/12/25 09:09:36;;;;;;;;;;;;;;;11.80;nan;101989.47;5039439;28;19924;-34
2022/12/25 09:12:01;;;;;;;;;;;;;;;11.78;nan;101983.50;5045831;28;20271;-34
2022/12/25 09:14:27;;;;;;;;;;;;;;;11.76;nan;101982.88;5043419;28;19973;-33
2022/12/25 09:16:52;;;;;;;;;;;;;;;11.77;nan;101983.69;5042872;28;20274;-34
2022/12/25 09:19:18;;;;;;;;;;;;;;;11.73;nan;101983.34;5043228;28;19939;-34
2022/12/25 09:21:43;;;;;;;;;;;;;;;11.71;nan;101980.06;5040106;28;19959;-34
2022/12/25 09:24:09;;;;;;;;;;;;;;;11.70;nan;101977.59;5040511;28;19924;-33
2022/12/25 09:26:35;;;;;;;;;;;;;;;11.65;nan;101975.56;5042222;28;20374;-34
2022/12/25 09:29:00;;;;;;;;;;;;;;;11.59;nan;101962.25;5043260;28;19916;-34
2022/12/25 09:31:26;;;;;;;;;;;;;;;11.58;nan;101958.75;5044244;28;19928;-34
2022/12/25 09:33:54;;;;;;;;;;;;;;;11.64;nan;101963.19;5039926;28;20398;-33
2022/12/25 09:36:22;;;;;;;;;;;;;;;11.71;nan;101963.13;5039396;28;20310;-35
2022/12/25 09:38:47;;;;;;;;;;;;;;;11.71;nan;101955.09;5038986;28;20413;-34
2022/12/25 09:41:13;;;;;;;;;;;;;;;11.72;nan;101949.47;5041271;28;19920;-34
2022/12/25 09:43:41;;;;;;;;;;;;;;;11.70;nan;101945.38;5037786;28;19931;-34
2022/12/25 09:46:12;;;;;;;;;;;;;;;11.68;nan;101945.63;5036926;28;19924;-33
2022/12/25 09:48:39;;;;;;;;;;;;;;;11.70;nan;101946.22;5042744;28;20424;-34
2022/12/25 09:51:10;;;;;;;;;;;;;;;11.72;nan;101941.44;5037104;28;19928;-34
2022/12/25 09:53:37;;;;;;;;;;;;;;;11.70;nan;101943.53;5042273;28;19960;-34
2022/12/25 09:56:06;;;;;;;;;;;;;;;11.70;nan;101940.03;5040046;28;19963;-33
2022/12/25 09:58:32;;;;;;;;;;;;;;;11.72;nan;101945.97;5043194;28;20012;-34
2022/12/25 10:01:16;;;;;;;;;;;;;;;11.65;nan;101948.72;5040194;28;19927;-34
2022/12/25 10:03:44;;;;;;;;;;;;;;;11.58;nan;101948.00;5037303;28;19929;-34
2022/12/25 10:06:12;;;;;;;;;;;;;;;11.53;nan;101937.13;5039744;28;19920;-34
2022/12/25 10:08:40;;;;;;;;;;;;;;;11.50;nan;101930.34;5041368;28;19924;-33
2022/12/25 10:11:15;;;;;;;;;;;;;;;11.46;nan;101929.13;5036238;28;19947;-34
2022/12/25 10:13:55;;;;;;;;;;;;;;;11.46;nan;101934.50;5036834;28;19921;-34
2022/12/25 10:16:24;;;;;;;;;;;;;;;11.48;nan;101931.59;5039633;28;20346;-33
2022/12/25 10:18:55;;;;;;;;;;;;;;;11.48;nan;101936.97;5038230;28;20293;-33
2022/12/25 10:21:21;;;;;;;;;;;;;;;11.40;nan;101939.97;5037260;28;19925;-33
2022/12/25 10:23:48;;;;;;;;;;;;;;;11.36;nan;101939.59;5040194;28;20060;-33
2022/12/25 10:26:18;;;;;;;;;;;;;;;11.33;nan;101932.00;5039305;28;20283;-34
2022/12/25 10:28:50;;;;;;;;;;;;;;;11.31;nan;101930.56;5038407;28;19916;-34
2022/12/25 10:31:23;;;;;;;;;;;;;;;11.29;nan;101921.91;5043481;28;19970;-33
2022/12/25 10:33:49;;;;;;;;;;;;;;;11.31;nan;101922.50;5040770;28;19917;-34
2022/12/25 10:36:17;;;;;;;;;;;;;;;11.34;nan;101930.13;5041249;28;19921;-33
2022/12/25 10:38:43;;;;;;;;;;;;;;;11.35;nan;101932.59;5043075;28;19921;-33
2022/12/25 10:41:24;;;;;;;;;;;;;;;11.33;nan;101923.13;5042004;28;19917;-33
2022/12/25 10:43:52;;;;;;;;;;;;;;;11.34;nan;101924.78;5039581;28;19925;-33
2022/12/25 10:46:18;;;;;;;;;;;;;;;11.28;nan;101921.09;5041988;28;19925;-33
2022/12/25 10:48:55;;;;;;;;;;;;;;;11.29;nan;101924.59;5040371;28;19978;-34
2022/12/25 10:51:26;;;;;;;;;;;;;;;11.31;nan;101922.50;5040374;28;20656;-33
2022/12/25 10:53:51;;;;;;;;;;;;;;;11.33;nan;101923.13;5047178;28;20176;-34
2022/12/25 10:56:17;;;;;;;;;;;;;;;11.30;nan;101923.56;5046899;28;19917;-34
2022/12/25 10:58:43;;;;;;;;;;;;;;;11.28;nan;101914.91;5050526;28;19916;-33
2022/12/25 11:01:09;;;;;;;;;;;;;;;11.23;nan;101904.03;5048384;28;20011;-33
2022/12/25 11:03:37;;;;;;;;;;;;;;;11.22;nan;101900.53;5050332;28;20263;-33
2022/12/25 11:06:03;;;;;;;;;;;;;;;11.25;nan;101900.09;5041739;28;20391;-34
2022/12/25 11:08:30;;;;;;;;;;;;;;;11.34;nan;101896.06;5049510;28;19956;-33
2022/12/25 11:11:04;;;;;;;;;;;;;;;11.36;nan;101887.81;5048305;28;19963;-33
2022/12/25 11:13:31;;;;;;;;;;;;;;;11.42;nan;101901.13;5051545;28;19921;-34
2022/12/25 11:16:10;;;;;;;;;;;;;;;11.44;nan;101892.84;5051349;28;19921;-33
2022/12/25 11:18:47;;;;;;;;;;;;;;;11.47;nan;101892.38;5047419;28;19956;-34
2022/12/25 11:21:17;;;;;;;;;;;;;;;11.44;nan;101898.22;5047475;28;19962;-33
2022/12/25 11:23:43;;;;;;;;;;;;;;;11.44;nan;101899.03;5047683;28;20023;-33
2022/12/25 11:26:10;;;;;;;;;;;;;;;11.46;nan;101914.91;5047798;28;19924;-34
2022/12/25 11:28:36;;;;;;;;;;;;;;;11.54;nan;101914.63;5051382;28;20428;-34
2022/12/25 11:31:04;;;;;;;;;;;;;;;11.56;nan;101915.19;5046791;28;19921;-34
2022/12/25 11:33:33;;;;;;;;;;;;;;;11.65;nan;101913.81;5048995;28;20397;-34
2022/12/25 11:36:02;;;;;;;;;;;;;;;11.70;nan;101907.81;5048361;28;20003;-34
2022/12/25 11:38:27;;;;;;;;;;;;;;;11.76;nan;101912.25;5048296;28;19920;-33
2022/12/25 11:40:57;;;;;;;;;;;;;;;11.75;nan;101903.38;5047907;28;19943;-33
2022/12/25 11:43:32;;;;;;;;;;;;;;;11.73;nan;101892.06;5049615;28;20402;-34
2022/12/25 11:46:07;;;;;;;;;;;;;;;11.73;nan;101886.69;5051472;28;19924;-34
2022/12/25 11:48:48;;;;;;;;;;;;;;;11.77;nan;101887.84;5050837;28;19925;-34
2022/12/25 11:51:14;;;;;;;;;;;;;;;11.76;nan;101880.03;5046043;28;19947;-33
2022/12/25 11:53:59;;;;;;;;;;;;;;;11.74;nan;101874.91;5048712;28;19925;-33
2022/12/25 11:56:25;;;;;;;;;;;;;;;11.76;nan;101861.25;5044342;28;20018;-34
2022/12/25 11:59:02;;;;;;;;;;;;;;;11.77;nan;101844.91;5050087;28;20477;-33
2022/12/25 12:01:47;;;;;;;;;;;;;;;11.80;nan;101847.16;5046855;28;20385;-34
2022/12/25 12:04:32;;;;;;;;;;;;;;;11.82;nan;101838.88;5044105;28;19920;-34
2022/12/25 12:07:00;;;;;;;;;;;;;;;11.89;nan;101836.09;5048216;28;19917;-33
2022/12/25 12:09:44;;;;;;;;;;;;;;;11.94;nan;101828.16;5042539;28;19928;-34
2022/12/25 12:12:09;;;;;;;;;;;;;;;12.00;nan;101830.72;5050118;28;19964;-33
2022/12/25 12:14:47;;;;;;;;;;;;;;;12.01;nan;101831.56;5049623;28;19949;-34
2022/12/25 12:17:13;;;;;;;;;;;;;;;12.03;nan;101821.41;5042786;28;19921;-33
2022/12/25 12:19:38;;;;;;;;;;;;;;;12.09;nan;101823.16;5050131;28;19970;-33
2022/12/25 12:22:04;;;;;;;;;;;;;;;12.09;nan;101823.97;5047423;28;19921;-33
2022/12/25 12:24:50;;;;;;;;;;;;;;;12.14;nan;101815.22;5045672;28;19921;-34
2022/12/25 12:27:22;;;;;;;;;;;;;;;12.15;nan;101802.59;5034056;28;20313;-34
2022/12/25 12:29:49;;;;;;;;;;;;;;;12.14;nan;101800.97;5047285;28;19916;-34
2022/12/25 12:32:21;;;;;;;;;;;;;;;12.15;nan;101799.91;5043877;28;19917;-33
2022/12/25 12:34:48;;;;;;;;;;;;;;;12.16;nan;101804.25;5047690;28;20294;-34
2022/12/25 12:37:19;;;;;;;;;;;;;;;12.16;nan;101815.00;5046396;28;19924;-34
2022/12/25 12:39:49;;;;;;;;;;;;;;;12.19;nan;101820.72;5043317;28;20402;-34
2022/12/25 12:42:17;;;;;;;;;;;;;;;12.23;nan;101816.53;5050089;28;20289;-33
2022/12/25 12:44:43;;;;;;;;;;;;;;;12.23;nan;101811.16;5048313;28;19925;-34
2022/12/25 12:47:26;;;;;;;;;;;;;;;12.24;nan;101820.03;5044799;28;20003;-34
2022/12/25 12:50:01;;;;;;;;;;;;;;;12.26;nan;101836.75;5045444;28;19924;-34
2022/12/25 12:52:29;;;;;;;;;;;;;;;12.28;nan;101830.06;5045515;28;19929;-34
2022/12/25 12:55:05;;;;;;;;;;;;;;;12.28;nan;101835.44;5047185;28;20010;-34
2022/12/25 12:57:33;;;;;;;;;;;;;;;12.31;nan;101834.97;5039520;28;19928;-34
2022/12/25 13:00:00;;;;;;;;;;;;;;;12.33;nan;101827.50;5048494;28;19917;-34
2022/12/25 13:02:44;;;;;;;;;;;;;;;12.35;nan;101819.19;5040838;28;19936;-34
2022/12/25 13:05:24;;;;;;;;;;;;;;;12.35;nan;101808.44;5045389;28;19921;-34
2022/12/25 13:07:59;;;;;;;;;;;;;;;12.33;nan;101806.00;5043997;28;21217;-34
2022/12/25 13:10:31;;;;;;;;;;;;;;;12.36;nan;101802.84;5043526;28;20378;-33
2022/12/25 13:13:00;;;;;;;;;;;;;;;12.40;nan;101806.72;5046853;28;19974;-34
2022/12/25 13:15:33;;;;;;;;;;;;;;;12.44;nan;101801.69;5041664;28;19975;-34
2022/12/25 13:18:04;;;;;;;;;;;;;;;12.42;nan;101801.09;5042220;28;20406;-35
2022/12/25 13:20:32;;;;;;;;;;;;;;;12.39;nan;101794.34;5044540;28;19920;-34
2022/12/25 13:22:57;;;;;;;;;;;;;;;12.33;nan;101794.44;5042356;28;19920;-34
2022/12/25 13:25:23;;;;;;;;;;;;;;;12.35;nan;101797.69;5038789;28;19958;-34
2022/12/25 13:27:55;;;;;;;;;;;;;;;12.31;nan;101797.34;5042476;28;19964;-34
2022/12/25 13:30:21;;;;;;;;;;;;;;;12.28;nan;101797.00;5041325;28;19924;-34
2022/12/25 13:32:48;;;;;;;;;;;;;;;12.28;nan;101803.19;5041321;28;20421;-34
2022/12/25 13:35:16;;;;;;;;;;;;;;;12.26;nan;101804.50;5042569;28;19931;-34
2022/12/25 13:37:43;;;;;;;;;;;;;;;12.23;nan;101803.09;5039709;28;19925;-34
2022/12/25 13:42:04;;;;;;;;;;;;;;;12.24;nan;101803.91;5040323;28;19921;-34
2022/12/25 13:43:25;;;;;;;;;;;;;;;12.21;nan;101799.81;4997320;28;21272;-34
2022/12/25 13:45:55;;;;;;;;;;;;;;;12.21;nan;101807.03;5043738;28;20406;-33
2022/12/25 13:48:22;;;;;;;;;;;;;;;12.20;nan;101816.97;5038394;28;20307;-34
2022/12/25 13:50:55;;;;;;;;;;;;;;;12.20;nan;101813.47;5041002;28;19924;-33
2022/12/25 13:53:20;;;;;;;;;;;;;;;12.12;nan;101814.63;5040974;28;20275;-34
2022/12/25 13:55:51;;;;;;;;;;;;;;;12.09;nan;101796.31;5038273;28;19927;-34
2022/12/25 13:58:24;;;;;;;;;;;;;;;12.07;nan;101785.78;5042154;28;19921;-34
2022/12/25 14:00:51;;;;;;;;;;;;;;;12.09;nan;101782.88;5039708;28;19998;-33
2022/12/25 14:03:35;;;;;;;;;;;;;;;12.07;nan;101768.88;5038134;28;19967;-33
2022/12/25 14:06:04;;;;;;;;;;;;;;;12.04;nan;101764.78;5040437;28;20074;-35
2022/12/25 14:08:31;;;;;;;;;;;;;;;12.04;nan;101764.78;5039547;28;20506;-34
2022/12/25 14:10:57;;;;;;;;;;;;;;;12.07;nan;101763.50;5042170;28;20540;-34
2022/12/25 14:13:26;;;;;;;;;;;;;;;12.08;nan;101755.19;5044200;28;20413;-34
2022/12/25 14:15:52;;;;;;;;;;;;;;;12.03;nan;101747.03;5039989;28;19940;-34
2022/12/25 14:18:18;;;;;;;;;;;;;;;11.99;nan;101745.84;5042234;28;19943;-34
2022/12/25 14:20:56;;;;;;;;;;;;;;;11.98;nan;101748.75;5043227;28;19921;-34
2022/12/25 14:23:22;;;;;;;;;;;;;;;11.99;nan;101732.41;5038049;28;21606;-34
2022/12/25 14:25:47;;;;;;;;;;;;;;;11.99;nan;101718.97;5038978;28;19921;-34
2022/12/25 14:28:18;;;;;;;;;;;;;;;11.99;nan;101724.34;5040561;28;20387;-34
2022/12/25 14:30:43;;;;;;;;;;;;;;;12.03;nan;101732.78;5043203;28;19970;-34
2022/12/25 14:33:16;;;;;;;;;;;;;;;12.08;nan;101730.19;5040907;28;19921;-34
2022/12/25 14:35:42;;;;;;;;;;;;;;;12.10;nan;101736.97;5041755;28;19921;-34
2022/12/25 14:38:13;;;;;;;;;;;;;;;12.14;nan;101731.13;5041735;28;20371;-34
2022/12/25 14:40:42;;;;;;;;;;;;;;;12.17;nan;101734.16;5039495;28;20156;-33
2022/12/25 14:43:27;;;;;;;;;;;;;;;12.17;nan;101728.78;5037711;28;19925;-34
2022/12/25 14:45:54;;;;;;;;;;;;;;;12.15;nan;101738.13;5042813;28;19924;-34
2022/12/25 14:48:24;;;;;;;;;;;;;;;12.15;nan;101746.19;5040082;28;19921;-34
2022/12/25 14:50:53;;;;;;;;;;;;;;;12.14;nan;101742.69;5040323;28;19928;-34
2022/12/25 14:53:20;;;;;;;;;;;;;;;12.13;nan;101741.06;5042824;28;19921;-34